Terminal Aerodrome Forecast
Issued by NWS

Home | Current Version | Previous Version | Text Only | Print | Product List | Glossary On
Versions: 1 2 3 4 5 6 7 8 9 10 11 12 13 14
842
FTUS46 KMTR 220536
TAFSJC
TAF
KSJC 220536Z 2206/2306 30007KT P6SM FEW020 SCT100
     FM220800 16006KT P6SM BKN018
     FM221700 VRB03KT P6SM FEW020 FEW100
     FM221800 31014KT P6SM FEW025
     FM230400 31008KT P6SM SCT015=

USA.gov is the U.S. government's official web portal to all federal, state and local government web resources and services.